sensor_id;sensor_type;location;lat;lon;timestamp;temperature;humidity
6018;DHT22;3037;51.068;13.780;2022-07-23T00:02:07;19.10;1.00
6018;DHT22;3037;51.068;13.780;2022-07-23T00:04:33;19.10;1.00
6018;DHT22;3037;51.068;13.780;2022-07-23T00:06:59;19.10;1.00
6018;DHT22;3037;51.068;13.780;2022-07-23T00:09:24;19.00;1.00
6018;DHT22;3037;51.068;13.780;2022-07-23T00:11:50;18.80;1.00
6018;DHT22;3037;51.068;13.780;2022-07-23T00:14:15;18.70;1.00
6018;DHT22;3037;51.068;13.780;2022-07-23T00:16:41;18.80;1.00
6018;DHT22;3037;51.068;13.780;2022-07-23T00:19:06;18.80;53.80
6018;DHT22;3037;51.068;13.780;2022-07-23T00:21:32;18.80;1.00
6018;DHT22;3037;51.068;13.780;2022-07-23T00:23:57;18.70;80.50
6018;DHT22;3037;51.068;13.780;2022-07-23T00:26:23;18.70;99.90
6018;DHT22;3037;51.068;13.780;2022-07-23T00:28:49;18.50;99.90
6018;DHT22;3037;51.068;13.780;2022-07-23T00:31:14;18.50;1.00
6018;DHT22;3037;51.068;13.780;2022-07-23T00:33:40;18.40;1.00
6018;DHT22;3037;51.068;13.780;2022-07-23T00:36:06;18.40;1.00
6018;DHT22;3037;51.068;13.780;2022-07-23T00:38:32;18.30;99.90
6018;DHT22;3037;51.068;13.780;2022-07-23T00:40:57;18.30;94.60
6018;DHT22;3037;51.068;13.780;2022-07-23T00:43:23;18.30;99.90
6018;DHT22;3037;51.068;13.780;2022-07-23T00:45:49;18.40;99.90
6018;DHT22;3037;51.068;13.780;2022-07-23T00:48:14;18.20;1.00
6018;DHT22;3037;51.068;13.780;2022-07-23T00:50:40;18.20;1.00
6018;DHT22;3037;51.068;13.780;2022-07-23T00:53:05;18.30;1.00
6018;DHT22;3037;51.068;13.780;2022-07-23T00:55:31;18.30;1.00
6018;DHT22;3037;51.068;13.780;2022-07-23T00:57:58;18.20;1.00
6018;DHT22;3037;51.068;13.780;2022-07-23T01:00:24;18.30;99.90
6018;DHT22;3037;51.068;13.780;2022-07-23T01:02:49;18.20;1.00
6018;DHT22;3037;51.068;13.780;2022-07-23T01:05:16;18.30;1.00
6018;DHT22;3037;51.068;13.780;2022-07-23T01:07:42;18.30;99.90
6018;DHT22;3037;51.068;13.780;2022-07-23T01:10:08;18.20;99.90
6018;DHT22;3037;51.068;13.780;2022-07-23T01:12:54;18.20;1.00
6018;DHT22;3037;51.068;13.780;2022-07-23T01:15:19;18.30;99.90
6018;DHT22;3037;51.068;13.780;2022-07-23T01:17:45;18.40;99.90
6018;DHT22;3037;51.068;13.780;2022-07-23T01:20:10;18.50;1.00
6018;DHT22;3037;51.068;13.780;2022-07-23T01:22:36;18.50;99.90
6018;DHT22;3037;51.068;13.780;2022-07-23T01:25:01;18.60;99.90
6018;DHT22;3037;51.068;13.780;2022-07-23T01:27:27;18.60;99.90
6018;DHT22;3037;51.068;13.780;2022-07-23T01:29:54;18.60;1.00
6018;DHT22;3037;51.068;13.780;2022-07-23T01:32:20;18.60;1.00
6018;DHT22;3037;51.068;13.780;2022-07-23T01:34:45;18.70;64.00
6018;DHT22;3037;51.068;13.780;2022-07-23T01:37:11;18.80;1.00
6018;DHT22;3037;51.068;13.780;2022-07-23T01:39:36;18.80;1.00
6018;DHT22;3037;51.068;13.780;2022-07-23T01:42:02;18.90;1.00
6018;DHT22;3037;51.068;13.780;2022-07-23T01:44:27;18.80;1.00
6018;DHT22;3037;51.068;13.780;2022-07-23T01:46:53;18.80;99.90
6018;DHT22;3037;51.068;13.780;2022-07-23T01:49:18;18.70;1.00
6018;DHT22;3037;51.068;13.780;2022-07-23T01:51:44;18.70;1.00
6018;DHT22;3037;51.068;13.780;2022-07-23T01:54:30;18.70;43.00
6018;DHT22;3037;51.068;13.780;2022-07-23T01:56:57;18.70;1.00
6018;DHT22;3037;51.068;13.780;2022-07-23T01:59:23;18.70;1.00
6018;DHT22;3037;51.068;13.780;2022-07-23T02:01:49;18.70;1.00
6018;DHT22;3037;51.068;13.780;2022-07-23T02:04:19;18.80;99.90
6018;DHT22;3037;51.068;13.780;2022-07-23T02:06:45;18.80;1.00
6018;DHT22;3037;51.068;13.780;2022-07-23T02:09:10;18.80;99.90
6018;DHT22;3037;51.068;13.780;2022-07-23T02:11:36;18.90;1.00
6018;DHT22;3037;51.068;13.780;2022-07-23T02:14:02;18.80;1.00
6018;DHT22;3037;51.068;13.780;2022-07-23T02:16:27;18.80;99.90
6018;DHT22;3037;51.068;13.780;2022-07-23T02:18:53;18.70;1.00
6018;DHT22;3037;51.068;13.780;2022-07-23T02:21:18;18.70;1.00
6018;DHT22;3037;51.068;13.780;2022-07-23T02:23:44;18.60;99.90
6018;DHT22;3037;51.068;13.780;2022-07-23T02:26:09;18.70;1.00
6018;DHT22;3037;51.068;13.780;2022-07-23T02:28:35;18.60;99.90
6018;DHT22;3037;51.068;13.780;2022-07-23T02:31:00;18.50;1.00
6018;DHT22;3037;51.068;13.780;2022-07-23T02:33:26;18.40;19.80
6018;DHT22;3037;51.068;13.780;2022-07-23T02:35:51;18.50;1.00
6018;DHT22;3037;51.068;13.780;2022-07-23T02:38:17;18.40;1.00
6018;DHT22;3037;51.068;13.780;2022-07-23T02:40:42;18.50;99.90
6018;DHT22;3037;51.068;13.780;2022-07-23T02:43:08;18.60;1.00
6018;DHT22;3037;51.068;13.780;2022-07-23T02:45:33;18.70;99.90
6018;DHT22;3037;51.068;13.780;2022-07-23T02:47:59;18.70;1.00
6018;DHT22;3037;51.068;13.780;2022-07-23T02:50:24;18.60;99.90
6018;DHT22;3037;51.068;13.780;2022-07-23T02:52:50;18.80;99.90
6018;DHT22;3037;51.068;13.780;2022-07-23T02:55:15;18.80;99.90
6018;DHT22;3037;51.068;13.780;2022-07-23T02:57:41;18.70;1.00
6018;DHT22;3037;51.068;13.780;2022-07-23T03:00:07;18.70;1.00
6018;DHT22;3037;51.068;13.780;2022-07-23T03:02:33;18.70;99.90
6018;DHT22;3037;51.068;13.780;2022-07-23T03:04:59;18.70;1.00
6018;DHT22;3037;51.068;13.780;2022-07-23T03:07:24;18.70;1.00
6018;DHT22;3037;51.068;13.780;2022-07-23T03:09:50;18.60;99.90
6018;DHT22;3037;51.068;13.780;2022-07-23T03:12:15;18.70;1.00
6018;DHT22;3037;51.068;13.780;2022-07-23T03:14:41;18.70;1.00
6018;DHT22;3037;51.068;13.780;2022-07-23T03:17:07;18.60;1.00
6018;DHT22;3037;51.068;13.780;2022-07-23T03:19:33;18.70;1.00
6018;DHT22;3037;51.068;13.780;2022-07-23T03:21:59;18.70;99.90
6018;DHT22;3037;51.068;13.780;2022-07-23T03:24:24;19.10;16.40
6018;DHT22;3037;51.068;13.780;2022-07-23T03:27:10;18.70;99.90
6018;DHT22;3037;51.068;13.780;2022-07-23T03:29:35;18.70;99.90
6018;DHT22;3037;51.068;13.780;2022-07-23T03:32:02;18.60;1.00
6018;DHT22;3037;51.068;13.780;2022-07-23T03:34:28;18.50;1.00
6018;DHT22;3037;51.068;13.780;2022-07-23T03:36:53;18.50;1.00
6018;DHT22;3037;51.068;13.780;2022-07-23T03:39:19;18.50;99.90
6018;DHT22;3037;51.068;13.780;2022-07-23T03:41:44;18.50;1.00
6018;DHT22;3037;51.068;13.780;2022-07-23T03:44:10;18.60;99.90
6018;DHT22;3037;51.068;13.780;2022-07-23T03:46:35;18.50;99.90
6018;DHT22;3037;51.068;13.780;2022-07-23T03:49:01;18.50;1.00
6018;DHT22;3037;51.068;13.780;2022-07-23T03:51:26;18.50;99.90
6018;DHT22;3037;51.068;13.780;2022-07-23T03:53:52;18.60;1.00
6018;DHT22;3037;51.068;13.780;2022-07-23T03:56:17;18.80;1.00
6018;DHT22;3037;51.068;13.780;2022-07-23T03:58:42;18.80;99.90
6018;DHT22;3037;51.068;13.780;2022-07-23T04:01:08;18.80;1.00
6018;DHT22;3037;51.068;13.780;2022-07-23T04:03:33;18.80;1.00
6018;DHT22;3037;51.068;13.780;2022-07-23T04:05:59;18.80;99.90
6018;DHT22;3037;51.068;13.780;2022-07-23T04:08:24;18.80;1.00
6018;DHT22;3037;51.068;13.780;2022-07-23T04:10:50;18.90;35.90
6018;DHT22;3037;51.068;13.780;2022-07-23T04:13:16;18.90;1.00
6018;DHT22;3037;51.068;13.780;2022-07-23T04:15:41;18.90;1.00
6018;DHT22;3037;51.068;13.780;2022-07-23T04:18:07;19.10;99.90
6018;DHT22;3037;51.068;13.780;2022-07-23T04:20:33;19.20;1.00
6018;DHT22;3037;51.068;13.780;2022-07-23T04:22:59;19.10;1.00
6018;DHT22;3037;51.068;13.780;2022-07-23T04:25:24;19.20;99.90
6018;DHT22;3037;51.068;13.780;2022-07-23T04:27:50;19.20;1.00
6018;DHT22;3037;51.068;13.780;2022-07-23T04:30:15;19.20;99.90
6018;DHT22;3037;51.068;13.780;2022-07-23T04:32:41;19.20;56.70
6018;DHT22;3037;51.068;13.780;2022-07-23T04:35:06;19.30;1.00
6018;DHT22;3037;51.068;13.780;2022-07-23T04:37:32;19.30;1.00
6018;DHT22;3037;51.068;13.780;2022-07-23T04:39:57;19.40;1.00
6018;DHT22;3037;51.068;13.780;2022-07-23T04:42:23;19.40;99.90
6018;DHT22;3037;51.068;13.780;2022-07-23T04:44:48;19.60;1.00
6018;DHT22;3037;51.068;13.780;2022-07-23T04:47:14;19.60;1.00
6018;DHT22;3037;51.068;13.780;2022-07-23T04:49:39;19.70;99.90
6018;DHT22;3037;51.068;13.780;2022-07-23T04:52:05;19.70;99.90
6018;DHT22;3037;51.068;13.780;2022-07-23T04:54:30;19.70;99.90
6018;DHT22;3037;51.068;13.780;2022-07-23T04:56:56;19.80;1.00
6018;DHT22;3037;51.068;13.780;2022-07-23T04:59:21;19.80;22.80
6018;DHT22;3037;51.068;13.780;2022-07-23T05:01:47;19.90;1.00
6018;DHT22;3037;51.068;13.780;2022-07-23T05:04:13;19.90;1.00
6018;DHT22;3037;51.068;13.780;2022-07-23T05:06:38;20.10;99.90
6018;DHT22;3037;51.068;13.780;2022-07-23T05:09:04;20.10;37.50
6018;DHT22;3037;51.068;13.780;2022-07-23T05:11:29;20.30;1.00
6018;DHT22;3037;51.068;13.780;2022-07-23T05:13:55;20.40;1.00
6018;DHT22;3037;51.068;13.780;2022-07-23T05:16:20;20.50;99.90
6018;DHT22;3037;51.068;13.780;2022-07-23T05:18:46;20.70;1.00
6018;DHT22;3037;51.068;13.780;2022-07-23T05:21:11;20.80;1.00
6018;DHT22;3037;51.068;13.780;2022-07-23T05:23:37;20.70;1.00
6018;DHT22;3037;51.068;13.780;2022-07-23T05:26:02;20.90;1.00
6018;DHT22;3037;51.068;13.780;2022-07-23T05:28:28;20.90;99.90
6018;DHT22;3037;51.068;13.780;2022-07-23T05:30:53;20.90;99.90
6018;DHT22;3037;51.068;13.780;2022-07-23T05:33:19;21.20;99.90
6018;DHT22;3037;51.068;13.780;2022-07-23T05:35:45;21.40;1.00
6018;DHT22;3037;51.068;13.780;2022-07-23T05:38:10;21.30;1.00
6018;DHT22;3037;51.068;13.780;2022-07-23T05:40:36;21.50;1.00
6018;DHT22;3037;51.068;13.780;2022-07-23T05:43:02;21.50;1.00
6018;DHT22;3037;51.068;13.780;2022-07-23T05:45:27;21.30;1.00
6018;DHT22;3037;51.068;13.780;2022-07-23T05:47:52;21.40;1.00
6018;DHT22;3037;51.068;13.780;2022-07-23T05:50:18;21.50;1.00
6018;DHT22;3037;51.068;13.780;2022-07-23T05:52:44;21.40;1.00
6018;DHT22;3037;51.068;13.780;2022-07-23T05:55:10;21.40;1.00
6018;DHT22;3037;51.068;13.780;2022-07-23T05:57:37;21.40;1.00
6018;DHT22;3037;51.068;13.780;2022-07-23T06:00:05;21.50;1.00
6018;DHT22;3037;51.068;13.780;2022-07-23T06:02:31;21.40;1.00
6018;DHT22;3037;51.068;13.780;2022-07-23T06:04:57;21.30;1.00
6018;DHT22;3037;51.068;13.780;2022-07-23T06:07:22;21.30;1.00
6018;DHT22;3037;51.068;13.780;2022-07-23T06:09:48;21.10;1.00
6018;DHT22;3037;51.068;13.780;2022-07-23T06:12:17;21.00;1.00
6018;DHT22;3037;51.068;13.780;2022-07-23T06:14:43;21.00;81.00
6018;DHT22;3037;51.068;13.780;2022-07-23T06:17:09;20.90;1.00
6018;DHT22;3037;51.068;13.780;2022-07-23T06:19:34;20.80;82.40
6018;DHT22;3037;51.068;13.780;2022-07-23T06:22:00;20.60;99.90
6018;DHT22;3037;51.068;13.780;2022-07-23T06:24:26;20.60;99.90
6018;DHT22;3037;51.068;13.780;2022-07-23T06:26:51;20.70;99.90
6018;DHT22;3037;51.068;13.780;2022-07-23T06:29:17;20.50;99.90
6018;DHT22;3037;51.068;13.780;2022-07-23T06:31:42;20.60;99.90
6018;DHT22;3037;51.068;13.780;2022-07-23T06:34:08;20.70;99.90
6018;DHT22;3037;51.068;13.780;2022-07-23T06:36:33;20.40;1.00
6018;DHT22;3037;51.068;13.780;2022-07-23T06:38:59;20.40;1.00
6018;DHT22;3037;51.068;13.780;2022-07-23T06:41:24;20.30;1.00
6018;DHT22;3037;51.068;13.780;2022-07-23T06:43:50;20.50;1.00
6018;DHT22;3037;51.068;13.780;2022-07-23T06:46:15;20.70;99.90
6018;DHT22;3037;51.068;13.780;2022-07-23T06:48:41;20.80;99.90
6018;DHT22;3037;51.068;13.780;2022-07-23T06:51:06;20.70;99.90
6018;DHT22;3037;51.068;13.780;2022-07-23T06:53:32;20.90;50.40
6018;DHT22;3037;51.068;13.780;2022-07-23T06:55:57;20.80;99.90
6018;DHT22;3037;51.068;13.780;2022-07-23T06:58:23;21.20;1.00
6018;DHT22;3037;51.068;13.780;2022-07-23T07:00:48;21.50;1.00
6018;DHT22;3037;51.068;13.780;2022-07-23T07:03:14;21.60;1.00
6018;DHT22;3037;51.068;13.780;2022-07-23T07:05:41;21.90;99.90
6018;DHT22;3037;51.068;13.780;2022-07-23T07:08:07;22.30;99.90
6018;DHT22;3037;51.068;13.780;2022-07-23T07:10:32;22.90;30.60
6018;DHT22;3037;51.068;13.780;2022-07-23T07:12:58;22.80;1.00
6018;DHT22;3037;51.068;13.780;2022-07-23T07:15:23;22.70;1.00
6018;DHT22;3037;51.068;13.780;2022-07-23T07:17:49;22.60;27.30
6018;DHT22;3037;51.068;13.780;2022-07-23T07:20:15;22.90;1.00
6018;DHT22;3037;51.068;13.780;2022-07-23T07:22:40;23.30;1.00
6018;DHT22;3037;51.068;13.780;2022-07-23T07:25:06;24.00;1.00
6018;DHT22;3037;51.068;13.780;2022-07-23T07:27:32;24.40;1.00
6018;DHT22;3037;51.068;13.780;2022-07-23T07:29:57;24.50;1.00
6018;DHT22;3037;51.068;13.780;2022-07-23T07:32:23;25.50;1.00
6018;DHT22;3037;51.068;13.780;2022-07-23T07:34:49;27.90;1.00
6018;DHT22;3037;51.068;13.780;2022-07-23T07:37:14;28.80;1.00
6018;DHT22;3037;51.068;13.780;2022-07-23T07:39:40;29.40;1.00
6018;DHT22;3037;51.068;13.780;2022-07-23T07:42:05;30.90;1.00
6018;DHT22;3037;51.068;13.780;2022-07-23T07:44:31;30.10;1.00
6018;DHT22;3037;51.068;13.780;2022-07-23T07:46:56;31.30;1.00
6018;DHT22;3037;51.068;13.780;2022-07-23T07:49:22;29.50;1.00
6018;DHT22;3037;51.068;13.780;2022-07-23T07:51:47;28.50;1.00
6018;DHT22;3037;51.068;13.780;2022-07-23T07:54:13;27.30;1.00
6018;DHT22;3037;51.068;13.780;2022-07-23T07:56:39;29.70;1.00
6018;DHT22;3037;51.068;13.780;2022-07-23T07:59:05;32.00;1.00
6018;DHT22;3037;51.068;13.780;2022-07-23T08:01:31;33.20;1.00
6018;DHT22;3037;51.068;13.780;2022-07-23T08:03:56;33.30;1.00
6018;DHT22;3037;51.068;13.780;2022-07-23T08:06:22;34.50;1.00
6018;DHT22;3037;51.068;13.780;2022-07-23T08:08:48;32.80;1.00
6018;DHT22;3037;51.068;13.780;2022-07-23T08:11:14;32.10;1.00
6018;DHT22;3037;51.068;13.780;2022-07-23T08:13:39;31.30;1.00
6018;DHT22;3037;51.068;13.780;2022-07-23T08:16:05;31.50;1.00
6018;DHT22;3037;51.068;13.780;2022-07-23T08:18:30;31.00;1.00
6018;DHT22;3037;51.068;13.780;2022-07-23T08:20:56;30.00;1.00
6018;DHT22;3037;51.068;13.780;2022-07-23T08:23:21;30.60;1.00
6018;DHT22;3037;51.068;13.780;2022-07-23T08:25:47;30.50;1.00
6018;DHT22;3037;51.068;13.780;2022-07-23T08:28:14;30.40;1.00
6018;DHT22;3037;51.068;13.780;2022-07-23T08:30:42;29.50;1.00
6018;DHT22;3037;51.068;13.780;2022-07-23T08:33:10;29.30;1.00
6018;DHT22;3037;51.068;13.780;2022-07-23T08:35:41;29.50;1.00
6018;DHT22;3037;51.068;13.780;2022-07-23T08:38:08;29.60;1.00
6018;DHT22;3037;51.068;13.780;2022-07-23T08:40:36;30.10;1.00
6018;DHT22;3037;51.068;13.780;2022-07-23T08:43:08;31.70;1.00
6018;DHT22;3037;51.068;13.780;2022-07-23T08:45:38;31.30;1.00
6018;DHT22;3037;51.068;13.780;2022-07-23T08:48:15;31.80;1.00
6018;DHT22;3037;51.068;13.780;2022-07-23T08:50:52;31.60;1.00
6018;DHT22;3037;51.068;13.780;2022-07-23T08:53:20;31.10;1.00
6018;DHT22;3037;51.068;13.780;2022-07-23T08:55:51;29.80;1.00
6018;DHT22;3037;51.068;13.780;2022-07-23T08:58:17;30.50;1.00
6018;DHT22;3037;51.068;13.780;2022-07-23T09:00:44;31.90;1.00
6018;DHT22;3037;51.068;13.780;2022-07-23T09:03:16;31.10;1.00
6018;DHT22;3037;51.068;13.780;2022-07-23T09:05:42;30.50;1.00
6018;DHT22;3037;51.068;13.780;2022-07-23T09:08:17;29.40;1.00
6018;DHT22;3037;51.068;13.780;2022-07-23T09:10:57;30.30;1.00
6018;DHT22;3037;51.068;13.780;2022-07-23T09:13:35;30.20;1.00
6018;DHT22;3037;51.068;13.780;2022-07-23T09:16:08;30.40;1.00
6018;DHT22;3037;51.068;13.780;2022-07-23T09:18:42;30.00;1.00
6018;DHT22;3037;51.068;13.780;2022-07-23T09:21:16;29.40;1.00
6018;DHT22;3037;51.068;13.780;2022-07-23T09:23:45;29.70;1.00
6018;DHT22;3037;51.068;13.780;2022-07-23T09:26:30;29.80;1.00
6018;DHT22;3037;51.068;13.780;2022-07-23T09:29:15;28.60;1.00
6018;DHT22;3037;51.068;13.780;2022-07-23T09:32:02;29.60;1.00
6018;DHT22;3037;51.068;13.780;2022-07-23T09:34:35;30.50;1.00
6018;DHT22;3037;51.068;13.780;2022-07-23T09:37:15;29.60;1.00
6018;DHT22;3037;51.068;13.780;2022-07-23T09:39:41;30.10;1.00
6018;DHT22;3037;51.068;13.780;2022-07-23T09:42:18;30.30;1.00
6018;DHT22;3037;51.068;13.780;2022-07-23T09:44:46;29.60;1.00
6018;DHT22;3037;51.068;13.780;2022-07-23T09:47:12;28.80;1.00
6018;DHT22;3037;51.068;13.780;2022-07-23T09:49:37;29.00;1.00
6018;DHT22;3037;51.068;13.780;2022-07-23T09:52:03;29.20;1.00
6018;DHT22;3037;51.068;13.780;2022-07-23T09:54:32;28.80;1.00
6018;DHT22;3037;51.068;13.780;2022-07-23T09:57:07;28.30;1.00
6018;DHT22;3037;51.068;13.780;2022-07-23T09:59:37;28.80;1.00
6018;DHT22;3037;51.068;13.780;2022-07-23T10:02:04;29.40;1.00
6018;DHT22;3037;51.068;13.780;2022-07-23T10:04:31;29.40;1.00
6018;DHT22;3037;51.068;13.780;2022-07-23T10:07:02;29.70;1.00
6018;DHT22;3037;51.068;13.780;2022-07-23T10:09:30;29.50;1.00
6018;DHT22;3037;51.068;13.780;2022-07-23T10:11:59;29.40;1.00
6018;DHT22;3037;51.068;13.780;2022-07-23T10:14:36;30.30;1.00
6018;DHT22;3037;51.068;13.780;2022-07-23T10:17:04;30.00;1.00
6018;DHT22;3037;51.068;13.780;2022-07-23T10:19:30;30.30;1.00
6018;DHT22;3037;51.068;13.780;2022-07-23T10:22:06;30.80;1.00
6018;DHT22;3037;51.068;13.780;2022-07-23T10:30:04;31.60;1.00
6018;DHT22;3037;51.068;13.780;2022-07-23T10:32:44;31.60;1.00
6018;DHT22;3037;51.068;13.780;2022-07-23T10:41:14;31.90;1.00
6018;DHT22;3037;51.068;13.780;2022-07-23T10:43:39;32.40;1.00
6018;DHT22;3037;51.068;13.780;2022-07-23T10:46:25;33.30;1.00
6018;DHT22;3037;51.068;13.780;2022-07-23T10:49:26;34.90;1.00
6018;DHT22;3037;51.068;13.780;2022-07-23T10:57:07;33.60;1.00
6018;DHT22;3037;51.068;13.780;2022-07-23T11:02:41;33.50;1.00
6018;DHT22;3037;51.068;13.780;2022-07-23T11:05:09;33.60;1.00
6018;DHT22;3037;51.068;13.780;2022-07-23T11:07:37;33.50;1.00
6018;DHT22;3037;51.068;13.780;2022-07-23T11:10:42;34.50;1.00
6018;DHT22;3037;51.068;13.780;2022-07-23T11:24:17;33.10;1.00
6018;DHT22;3037;51.068;13.780;2022-07-23T11:26:48;32.90;1.00
6018;DHT22;3037;51.068;13.780;2022-07-23T11:32:04;32.70;1.00
6018;DHT22;3037;51.068;13.780;2022-07-23T11:34:41;31.80;1.00
6018;DHT22;3037;51.068;13.780;2022-07-23T11:37:12;31.40;1.00
6018;DHT22;3037;51.068;13.780;2022-07-23T11:39:56;30.70;1.00
6018;DHT22;3037;51.068;13.780;2022-07-23T11:42:22;30.10;1.00
6018;DHT22;3037;51.068;13.780;2022-07-23T11:44:50;30.00;1.00
6018;DHT22;3037;51.068;13.780;2022-07-23T11:47:21;29.90;1.00
6018;DHT22;3037;51.068;13.780;2022-07-23T11:49:54;30.20;1.00
6018;DHT22;3037;51.068;13.780;2022-07-23T11:52:21;30.30;1.00
6018;DHT22;3037;51.068;13.780;2022-07-23T11:57:25;29.60;1.00
6018;DHT22;3037;51.068;13.780;2022-07-23T11:59:55;29.30;1.00
6018;DHT22;3037;51.068;13.780;2022-07-23T12:02:21;29.30;1.00
6018;DHT22;3037;51.068;13.780;2022-07-23T12:04:49;29.50;1.00
6018;DHT22;3037;51.068;13.780;2022-07-23T12:09:51;28.80;1.00
6018;DHT22;3037;51.068;13.780;2022-07-23T12:12:16;28.50;1.00
6018;DHT22;3037;51.068;13.780;2022-07-23T12:14:57;28.40;1.00
6018;DHT22;3037;51.068;13.780;2022-07-23T12:17:32;27.90;1.00
6018;DHT22;3037;51.068;13.780;2022-07-23T12:19:59;27.90;1.00
6018;DHT22;3037;51.068;13.780;2022-07-23T12:22:27;27.50;1.00
6018;DHT22;3037;51.068;13.780;2022-07-23T12:24:59;26.90;1.00
6018;DHT22;3037;51.068;13.780;2022-07-23T12:27:25;26.70;1.00
6018;DHT22;3037;51.068;13.780;2022-07-23T12:29:51;26.70;1.00
6018;DHT22;3037;51.068;13.780;2022-07-23T12:32:27;26.60;1.00
6018;DHT22;3037;51.068;13.780;2022-07-23T12:35:07;26.70;1.00
6018;DHT22;3037;51.068;13.780;2022-07-23T12:37:36;27.10;1.00
6018;DHT22;3037;51.068;13.780;2022-07-23T12:40:21;27.70;1.00
6018;DHT22;3037;51.068;13.780;2022-07-23T12:42:53;28.00;1.00
6018;DHT22;3037;51.068;13.780;2022-07-23T12:45:19;27.80;1.00
6018;DHT22;3037;51.068;13.780;2022-07-23T12:50:35;28.40;1.00
6018;DHT22;3037;51.068;13.780;2022-07-23T12:53:03;28.20;1.00
6018;DHT22;3037;51.068;13.780;2022-07-23T12:55:29;27.90;1.00
6018;DHT22;3037;51.068;13.780;2022-07-23T12:58:03;28.90;1.00
6018;DHT22;3037;51.068;13.780;2022-07-23T13:00:30;29.40;1.00
6018;DHT22;3037;51.068;13.780;2022-07-23T13:02:55;29.10;1.00
6018;DHT22;3037;51.068;13.780;2022-07-23T13:05:21;29.20;1.00
6018;DHT22;3037;51.068;13.780;2022-07-23T13:07:46;28.90;1.00
6018;DHT22;3037;51.068;13.780;2022-07-23T13:10:12;28.40;1.00
6018;DHT22;3037;51.068;13.780;2022-07-23T13:12:38;29.00;1.00
6018;DHT22;3037;51.068;13.780;2022-07-23T13:15:03;29.50;1.00
6018;DHT22;3037;51.068;13.780;2022-07-23T13:17:29;28.80;1.00
6018;DHT22;3037;51.068;13.780;2022-07-23T13:19:54;28.50;1.00
6018;DHT22;3037;51.068;13.780;2022-07-23T13:22:20;29.20;1.00
6018;DHT22;3037;51.068;13.780;2022-07-23T13:24:45;29.70;1.00
6018;DHT22;3037;51.068;13.780;2022-07-23T13:27:11;29.90;1.00
6018;DHT22;3037;51.068;13.780;2022-07-23T13:29:37;29.60;1.00
6018;DHT22;3037;51.068;13.780;2022-07-23T13:32:03;30.10;1.00
6018;DHT22;3037;51.068;13.780;2022-07-23T13:34:28;29.70;1.00
6018;DHT22;3037;51.068;13.780;2022-07-23T13:36:54;29.60;1.00
6018;DHT22;3037;51.068;13.780;2022-07-23T13:39:19;29.30;1.00
6018;DHT22;3037;51.068;13.780;2022-07-23T13:41:45;28.90;1.00
6018;DHT22;3037;51.068;13.780;2022-07-23T13:44:10;28.50;1.00
6018;DHT22;3037;51.068;13.780;2022-07-23T13:46:36;28.50;1.00
6018;DHT22;3037;51.068;13.780;2022-07-23T13:49:02;28.50;1.00
6018;DHT22;3037;51.068;13.780;2022-07-23T13:51:28;28.40;1.00
6018;DHT22;3037;51.068;13.780;2022-07-23T13:53:53;28.70;1.00
6018;DHT22;3037;51.068;13.780;2022-07-23T13:56:19;28.50;1.00
6018;DHT22;3037;51.068;13.780;2022-07-23T13:58:45;28.30;1.00
6018;DHT22;3037;51.068;13.780;2022-07-23T14:01:10;28.40;1.00
6018;DHT22;3037;51.068;13.780;2022-07-23T14:03:36;28.10;1.00
6018;DHT22;3037;51.068;13.780;2022-07-23T14:06:02;28.50;1.00
6018;DHT22;3037;51.068;13.780;2022-07-23T14:08:27;28.80;1.00
6018;DHT22;3037;51.068;13.780;2022-07-23T14:10:53;28.50;1.00
6018;DHT22;3037;51.068;13.780;2022-07-23T14:13:18;28.20;1.00
6018;DHT22;3037;51.068;13.780;2022-07-23T14:15:44;28.10;1.00
6018;DHT22;3037;51.068;13.780;2022-07-23T14:18:09;27.60;1.00
6018;DHT22;3037;51.068;13.780;2022-07-23T14:20:35;28.20;1.00
6018;DHT22;3037;51.068;13.780;2022-07-23T14:23:01;28.60;1.00
6018;DHT22;3037;51.068;13.780;2022-07-23T14:25:26;28.40;1.00
6018;DHT22;3037;51.068;13.780;2022-07-23T14:27:53;28.10;1.00
6018;DHT22;3037;51.068;13.780;2022-07-23T14:30:18;28.10;1.00
6018;DHT22;3037;51.068;13.780;2022-07-23T14:32:44;27.80;1.00
6018;DHT22;3037;51.068;13.780;2022-07-23T14:35:09;28.00;1.00
6018;DHT22;3037;51.068;13.780;2022-07-23T14:37:35;28.20;1.00
6018;DHT22;3037;51.068;13.780;2022-07-23T14:40:00;28.30;1.00
6018;DHT22;3037;51.068;13.780;2022-07-23T14:42:26;28.90;1.00
6018;DHT22;3037;51.068;13.780;2022-07-23T14:44:51;29.10;1.00
6018;DHT22;3037;51.068;13.780;2022-07-23T14:47:17;29.30;1.00
6018;DHT22;3037;51.068;13.780;2022-07-23T14:49:43;29.90;1.00
6018;DHT22;3037;51.068;13.780;2022-07-23T14:52:09;29.60;1.00
6018;DHT22;3037;51.068;13.780;2022-07-23T14:54:34;29.40;1.00
6018;DHT22;3037;51.068;13.780;2022-07-23T14:57:01;29.00;1.00
6018;DHT22;3037;51.068;13.780;2022-07-23T14:59:28;28.70;1.00
6018;DHT22;3037;51.068;13.780;2022-07-23T15:01:54;28.50;1.00
6018;DHT22;3037;51.068;13.780;2022-07-23T15:04:20;28.30;1.00
6018;DHT22;3037;51.068;13.780;2022-07-23T15:06:45;28.40;1.00
6018;DHT22;3037;51.068;13.780;2022-07-23T15:09:11;28.20;1.00
6018;DHT22;3037;51.068;13.780;2022-07-23T15:11:37;27.60;1.00
6018;DHT22;3037;51.068;13.780;2022-07-23T15:14:06;27.30;1.00
6018;DHT22;3037;51.068;13.780;2022-07-23T15:16:33;27.20;1.00
6018;DHT22;3037;51.068;13.780;2022-07-23T15:18:58;26.80;1.00
6018;DHT22;3037;51.068;13.780;2022-07-23T15:21:24;27.10;1.00
6018;DHT22;3037;51.068;13.780;2022-07-23T15:23:49;27.20;1.00
6018;DHT22;3037;51.068;13.780;2022-07-23T15:26:15;27.60;1.00
6018;DHT22;3037;51.068;13.780;2022-07-23T15:28:41;27.90;1.00
6018;DHT22;3037;51.068;13.780;2022-07-23T15:31:07;27.50;1.00
6018;DHT22;3037;51.068;13.780;2022-07-23T15:33:33;27.40;1.00
6018;DHT22;3037;51.068;13.780;2022-07-23T15:35:58;27.10;1.00
6018;DHT22;3037;51.068;13.780;2022-07-23T15:38:25;26.80;1.00
6018;DHT22;3037;51.068;13.780;2022-07-23T15:40:54;26.90;1.00
6018;DHT22;3037;51.068;13.780;2022-07-23T15:43:21;26.60;1.00
6018;DHT22;3037;51.068;13.780;2022-07-23T15:45:47;26.60;1.00
6018;DHT22;3037;51.068;13.780;2022-07-23T15:48:13;26.40;1.00
6018;DHT22;3037;51.068;13.780;2022-07-23T15:50:39;26.40;1.00
6018;DHT22;3037;51.068;13.780;2022-07-23T15:53:04;26.30;1.00
6018;DHT22;3037;51.068;13.780;2022-07-23T15:55:30;26.50;1.00
6018;DHT22;3037;51.068;13.780;2022-07-23T15:57:56;26.60;1.00
6018;DHT22;3037;51.068;13.780;2022-07-23T16:00:21;26.70;1.00
6018;DHT22;3037;51.068;13.780;2022-07-23T16:02:47;26.70;1.00
6018;DHT22;3037;51.068;13.780;2022-07-23T16:05:12;26.80;1.00
6018;DHT22;3037;51.068;13.780;2022-07-23T16:07:38;27.00;1.00
6018;DHT22;3037;51.068;13.780;2022-07-23T16:10:07;26.90;1.00
6018;DHT22;3037;51.068;13.780;2022-07-23T16:12:33;26.80;1.00
6018;DHT22;3037;51.068;13.780;2022-07-23T16:14:59;26.80;1.00
6018;DHT22;3037;51.068;13.780;2022-07-23T16:17:24;26.50;1.00
6018;DHT22;3037;51.068;13.780;2022-07-23T16:19:50;26.70;1.00
6018;DHT22;3037;51.068;13.780;2022-07-23T16:22:15;26.50;1.00
6018;DHT22;3037;51.068;13.780;2022-07-23T16:24:42;26.20;1.00
6018;DHT22;3037;51.068;13.780;2022-07-23T16:27:08;26.30;1.00
6018;DHT22;3037;51.068;13.780;2022-07-23T16:29:33;26.50;1.00
6018;DHT22;3037;51.068;13.780;2022-07-23T16:31:59;26.30;1.00
6018;DHT22;3037;51.068;13.780;2022-07-23T16:34:24;26.20;1.00
6018;DHT22;3037;51.068;13.780;2022-07-23T16:36:50;26.00;1.00
6018;DHT22;3037;51.068;13.780;2022-07-23T16:39:15;26.00;1.00
6018;DHT22;3037;51.068;13.780;2022-07-23T16:41:41;25.90;1.00